createdAt,value
2019-02-28T00:00:02.116Z,50.50
2019-02-28T00:05:05.809Z,50.36
2019-02-28T00:10:01.723Z,50.43
2019-02-28T00:15:01.802Z,50.75
2019-02-28T00:20:01.694Z,50.60
2019-02-28T00:25:04.356Z,50.44
2019-02-28T00:30:01.904Z,50.53
2019-02-28T00:35:01.649Z,50.45
2019-02-28T00:40:01.756Z,50.43
2019-02-28T00:45:03.618Z,50.33
2019-02-28T00:50:02.079Z,50.45
2019-02-28T00:55:01.760Z,50.36
2019-02-28T01:00:05.533Z,50.78
2019-02-28T01:05:05.063Z,50.82
2019-02-28T01:10:04.522Z,50.40
2019-02-28T01:15:01.697Z,50.19
2019-02-28T01:20:02.094Z,50.60
2019-02-28T01:25:01.772Z,50.14
2019-02-28T01:30:01.616Z,50.03
2019-02-28T01:35:05.809Z,50.07
2019-02-28T01:40:04.396Z,50.08
2019-02-28T01:45:01.670Z,49.98
2019-02-28T01:50:01.744Z,50.14
2019-02-28T01:55:01.943Z,50.47
2019-02-28T02:00:02.051Z,50.76
2019-02-28T02:05:01.728Z,50.14
2019-02-28T02:10:01.703Z,50.12
2019-02-28T02:15:01.947Z,50.06
2019-02-28T02:20:01.750Z,50.53
2019-02-28T02:25:03.176Z,49.97
2019-02-28T02:30:01.690Z,50.49
2019-02-28T02:35:08.083Z,49.92
2019-02-28T02:40:01.613Z,50.00
2019-02-28T02:45:05.085Z,49.90
2019-02-28T02:50:01.572Z,49.95
2019-02-28T02:55:02.343Z,50.27
2019-02-28T03:00:02.050Z,50.54
2019-02-28T03:05:02.812Z,50.40
2019-02-28T03:10:01.567Z,50.33
2019-02-28T03:15:01.639Z,49.84
2019-02-28T03:20:07.402Z,49.99
2019-02-28T03:25:02.111Z,50.46
2019-02-28T03:30:01.659Z,50.59
2019-02-28T03:35:01.635Z,50.04
2019-02-28T03:40:04.348Z,50.19
2019-02-28T03:45:01.850Z,50.64
2019-02-28T03:50:01.899Z,50.59
2019-02-28T03:55:04.425Z,50.75
2019-02-28T04:00:01.904Z,49.99
2019-02-28T04:05:02.095Z,49.96
2019-02-28T04:10:01.753Z,50.37
2019-02-28T04:15:05.839Z,50.03
2019-02-28T04:20:01.696Z,50.40
2019-02-28T04:25:01.740Z,50.12
2019-02-28T04:30:06.549Z,50.00
2019-02-28T04:35:01.696Z,50.46
2019-02-28T04:40:01.859Z,50.63
2019-02-28T04:45:01.660Z,50.59
2019-02-28T04:50:01.705Z,50.04
2019-02-28T04:55:02.907Z,50.22
2019-02-28T05:00:01.778Z,50.33
2019-02-28T05:05:01.631Z,50.33
2019-02-28T05:10:01.640Z,50.45
2019-02-28T05:15:02.724Z,50.39
2019-02-28T05:20:01.614Z,50.63
2019-02-28T05:25:01.626Z,49.98
2019-02-28T05:30:02.000Z,50.03
2019-02-28T05:35:01.725Z,50.75
2019-02-28T05:40:05.453Z,50.79
2019-02-28T05:45:02.211Z,50.74
2019-02-28T05:50:01.694Z,50.23
2019-02-28T05:55:01.687Z,50.47
2019-02-28T06:00:02.933Z,50.90
2019-02-28T06:05:02.335Z,51.20
2019-02-28T06:10:01.702Z,50.71
2019-02-28T06:15:03.642Z,51.23
2019-02-28T06:20:01.707Z,50.71
2019-02-28T06:25:01.621Z,50.41
2019-02-28T06:30:01.694Z,50.97
2019-02-28T06:35:02.567Z,50.48
2019-02-28T06:40:01.870Z,50.87
2019-02-28T06:45:02.486Z,50.61
2019-02-28T06:50:02.014Z,50.39
2019-02-28T06:55:02.190Z,51.01
2019-02-28T07:00:01.675Z,51.09
2019-02-28T07:05:01.936Z,50.82
2019-02-28T07:10:01.872Z,50.49
2019-02-28T07:15:01.679Z,50.61
2019-02-28T07:20:02.931Z,50.81
2019-02-28T07:25:01.765Z,50.64
2019-02-28T07:30:02.684Z,50.66
2019-02-28T07:35:01.741Z,51.00
2019-02-28T07:40:01.724Z,50.83
2019-02-28T07:45:01.820Z,51.29
2019-02-28T07:50:01.947Z,50.57
2019-02-28T07:55:01.770Z,51.24
2019-02-28T08:00:02.352Z,51.36
2019-02-28T08:05:03.005Z,51.22
2019-02-28T08:10:02.061Z,50.81
2019-02-28T08:15:01.744Z,50.88
2019-02-28T08:20:01.873Z,51.32
2019-02-28T08:25:01.973Z,51.01
2019-02-28T08:30:02.213Z,51.36
2019-02-28T08:35:01.851Z,50.81
2019-02-28T08:40:01.813Z,51.18
2019-02-28T08:45:01.739Z,51.02
2019-02-28T08:50:01.855Z,50.74
2019-02-28T08:55:03.019Z,51.02
2019-02-28T09:00:02.457Z,50.86
2019-02-28T09:05:01.725Z,50.94
2019-02-28T09:10:02.572Z,51.14
2019-02-28T09:15:01.853Z,50.67
2019-02-28T09:20:02.482Z,50.84
2019-02-28T09:25:01.761Z,51.21
2019-02-28T09:30:02.112Z,51.33
2019-02-28T09:35:05.709Z,51.33
2019-02-28T09:40:02.280Z,50.84
2019-02-28T09:45:06.823Z,51.00
2019-02-28T09:50:01.883Z,50.97
2019-02-28T09:55:02.716Z,51.13
2019-02-28T10:00:02.027Z,51.51
2019-02-28T10:05:02.791Z,51.39
2019-02-28T10:10:02.395Z,51.00
2019-02-28T10:15:07.246Z,51.27
2019-02-28T10:20:02.143Z,51.36
2019-02-28T10:25:03.650Z,51.07
2019-02-28T10:30:01.820Z,51.09
2019-02-28T10:35:02.357Z,51.01
2019-02-28T10:40:01.811Z,51.05
2019-02-28T10:45:03.625Z,51.15
2019-02-28T10:50:03.119Z,51.27
2019-02-28T10:55:02.405Z,51.26
2019-02-28T11:00:02.351Z,51.37
2019-02-28T11:05:01.911Z,51.53
2019-02-28T11:10:02.289Z,51.47
2019-02-28T11:15:02.046Z,51.17
2019-02-28T11:20:02.287Z,51.28
2019-02-28T11:25:02.183Z,51.02
2019-02-28T11:30:02.345Z,51.62
2019-02-28T11:35:02.953Z,50.95
2019-02-28T11:40:02.230Z,51.21
2019-02-28T11:45:02.264Z,51.61
2019-02-28T11:50:04.606Z,51.00
2019-02-28T11:55:02.339Z,50.98
2019-02-28T12:00:02.678Z,51.47
2019-02-28T12:05:03.223Z,51.09
2019-02-28T12:10:01.966Z,51.09
2019-02-28T12:15:02.761Z,50.93
2019-02-28T12:20:03.759Z,51.10
2019-02-28T12:25:04.559Z,51.32
2019-02-28T12:30:01.975Z,50.96
2019-02-28T12:35:02.522Z,51.38
2019-02-28T12:40:02.220Z,51.20
2019-02-28T12:45:02.068Z,51.51
2019-02-28T12:50:02.010Z,51.11
2019-02-28T12:55:04.224Z,51.12
2019-02-28T13:00:02.169Z,51.59
2019-02-28T13:05:02.437Z,51.60
2019-02-28T13:10:03.972Z,51.30
2019-02-28T13:15:02.490Z,51.18
2019-02-28T13:20:02.236Z,51.06
2019-02-28T13:25:02.105Z,51.56
2019-02-28T13:30:05.496Z,51.77
2019-02-28T13:35:07.119Z,51.28
2019-02-28T13:40:04.237Z,50.93
2019-02-28T13:45:02.104Z,51.15
2019-02-28T13:50:02.122Z,51.55
2019-02-28T13:55:02.087Z,51.44
2019-02-28T14:00:07.977Z,51.42
2019-02-28T14:05:02.749Z,51.73
2019-02-28T14:10:02.206Z,50.93
2019-02-28T14:15:03.523Z,51.48
2019-02-28T14:20:02.153Z,51.27
2019-02-28T14:25:04.965Z,51.61
2019-02-28T14:30:02.056Z,51.54
2019-02-28T14:35:02.094Z,51.03
2019-02-28T14:40:02.067Z,51.44
2019-02-28T14:45:04.092Z,51.16
2019-02-28T14:50:02.440Z,51.14
2019-02-28T14:55:02.688Z,51.21
2019-02-28T15:00:06.243Z,51.33
2019-02-28T15:05:02.373Z,51.65
2019-02-28T15:10:02.701Z,51.08
2019-02-28T15:15:02.142Z,51.25
2019-02-28T15:20:02.251Z,51.76
2019-02-28T15:25:04.365Z,51.28
2019-02-28T15:30:02.265Z,51.58
2019-02-28T15:35:02.327Z,51.42
2019-02-28T15:40:02.339Z,51.25
2019-02-28T15:45:04.137Z,51.78
2019-02-28T15:50:03.072Z,51.36
2019-02-28T15:55:03.066Z,51.19
2019-02-28T16:00:02.162Z,51.81
2019-02-28T16:05:05.439Z,51.69
2019-02-28T16:10:02.406Z,51.92
2019-02-28T16:15:02.232Z,51.28
2019-02-28T16:20:02.243Z,51.87
2019-02-28T16:25:02.276Z,51.37
2019-02-28T16:30:02.531Z,51.09
2019-02-28T16:35:02.883Z,51.56
2019-02-28T16:40:02.217Z,51.79
2019-02-28T16:45:05.518Z,51.84
2019-02-28T16:50:02.468Z,51.93
2019-02-28T16:55:03.003Z,51.64
2019-02-28T17:00:07.523Z,51.18
2019-02-28T17:05:02.343Z,51.31
2019-02-28T17:10:04.566Z,51.41
2019-02-28T17:15:02.667Z,51.69
2019-02-28T17:20:06.018Z,51.47
2019-02-28T17:25:02.516Z,51.06
2019-02-28T17:30:02.692Z,51.83
2019-02-28T17:35:02.297Z,51.68
2019-02-28T17:40:02.263Z,51.75
2019-02-28T17:45:02.397Z,51.09
2019-02-28T17:50:05.636Z,51.17
2019-02-28T17:55:03.234Z,51.59
2019-02-28T18:00:03.405Z,51.81
2019-02-28T18:05:03.863Z,51.88
2019-02-28T18:10:02.839Z,51.66
2019-02-28T18:15:02.268Z,51.66
2019-02-28T18:20:02.253Z,51.67
2019-02-28T18:25:02.233Z,51.23
2019-02-28T18:30:02.292Z,51.80
2019-02-28T18:35:03.102Z,51.26
2019-02-28T18:40:02.623Z,51.28
2019-02-28T18:45:02.448Z,51.58
2019-02-28T18:50:02.371Z,51.84
2019-02-28T18:55:05.989Z,51.52
2019-02-28T19:00:02.898Z,51.65
2019-02-28T19:05:02.833Z,51.80
2019-02-28T19:10:02.731Z,51.21
2019-02-28T19:15:03.629Z,51.60
2019-02-28T19:20:06.281Z,51.59
2019-02-28T19:25:02.358Z,51.20
2019-02-28T19:30:02.667Z,51.38
2019-02-28T19:35:02.406Z,51.32
2019-02-28T19:40:02.592Z,51.20
2019-02-28T19:45:02.333Z,51.53
2019-02-28T19:50:02.980Z,51.61
2019-02-28T19:55:02.487Z,51.66
2019-02-28T20:00:03.118Z,51.34
2019-02-28T20:05:02.522Z,51.79
2019-02-28T20:10:02.538Z,51.73
2019-02-28T20:15:02.391Z,51.82
2019-02-28T20:20:02.522Z,51.68
2019-02-28T20:25:03.260Z,51.80
2019-02-28T20:30:02.539Z,51.27
2019-02-28T20:35:03.064Z,51.33
2019-02-28T20:40:02.787Z,51.26
2019-02-28T20:45:03.225Z,51.34
2019-02-28T20:50:03.461Z,51.21
2019-02-28T20:55:02.549Z,51.43
2019-02-28T21:00:02.783Z,51.79
2019-02-28T21:05:02.915Z,51.53
2019-02-28T21:10:02.475Z,51.34
2019-02-28T21:15:02.943Z,51.94
2019-02-28T21:20:02.446Z,51.29
2019-02-28T21:25:02.585Z,51.55
2019-02-28T21:30:02.795Z,51.75
2019-02-28T21:35:04.768Z,51.79
2019-02-28T21:40:02.773Z,51.77
2019-02-28T21:45:02.727Z,51.21
2019-02-28T21:50:02.495Z,51.81
2019-02-28T21:55:03.005Z,51.68
2019-02-28T22:00:02.510Z,51.82
2019-02-28T22:05:02.537Z,51.46
2019-02-28T22:10:03.520Z,51.36
2019-02-28T22:15:03.016Z,52.04
2019-02-28T22:20:02.743Z,51.88
2019-02-28T22:25:02.799Z,51.84
2019-02-28T22:30:03.331Z,51.48
2019-02-28T22:35:02.556Z,51.55
2019-02-28T22:40:02.980Z,51.68
2019-02-28T22:45:03.264Z,51.53
2019-02-28T22:50:02.610Z,51.68
2019-02-28T22:55:03.717Z,51.63
2019-02-28T23:00:02.713Z,52.01
2019-02-28T23:05:02.677Z,51.92
2019-02-28T23:10:03.093Z,51.94
2019-02-28T23:15:02.530Z,51.64
2019-02-28T23:20:02.881Z,51.66
2019-02-28T23:25:03.809Z,51.75
2019-02-28T23:30:02.550Z,51.90
